»·PEaware :: N516TT M94-S36

N516TT :: M94-S36

FLIGHT INFORMATION

Flight Status: Arrived
Operator: Privately registered:
United States
More flights under this callsign
Pilot: Gareth S. (19921)
Aircraft: CIRRUS SR-22 TURBO
(S22T)
More flights by this aircraft type
Origin: M94 Desert Aire
United States
Destination: S36 Norman Grier Field
United States
More flights between these airports :: More routes between these airports
Route:
File this flight plan on PilotEdge
Remarks:
Altitude:
(Current/Filed)
4,500ft
Speed:
(Current/Filed)
150kts
Departed: 28-Aug-20 01:31 PM
Arrived: 28-Aug-20 03:57 PM
Distance/Time
Traveled:
98nm/2:26
Distance/Time
To Go:
Arrived

Flight Plot

Page will automatically refresh every two minutes.

Flight plan parsing failed; only flown route is shown


Map Options




Map Legend


Flown Route
Filed Route
Departure Airport
Arrival Airport
Navaid (VOR, NDB)
Fix

Horizontal Profiles

Position Reports

Time Latitude Longitude Heading Altitude Ground
Speed
28-Aug-20 12:41 46.688730 -119.926777 115 549ft 0kts
28-Aug-20 12:42 46.688730 -119.926777 115 549ft 0kts
28-Aug-20 12:43 46.688730 -119.926777 115 549ft 0kts
28-Aug-20 12:44 46.688730 -119.926777 115 549ft 0kts
28-Aug-20 12:45 46.688730 -119.926777 115 549ft 0kts
28-Aug-20 12:46 46.688730 -119.926777 115 549ft 0kts
28-Aug-20 12:47 46.688730 -119.926777 115 549ft 0kts
28-Aug-20 12:48 46.688730 -119.926777 115 549ft 0kts
28-Aug-20 12:49 46.688730 -119.926777 115 549ft 0kts
28-Aug-20 12:50 46.688730 -119.926777 115 549ft 0kts
28-Aug-20 12:51 46.688730 -119.926777 115 549ft 0kts
28-Aug-20 12:52 46.688730 -119.926777 115 549ft 0kts
28-Aug-20 12:53 46.688730 -119.926777 115 549ft 0kts
28-Aug-20 12:54 46.688952 -119.927019 115 548ft 0kts
28-Aug-20 12:55 46.688952 -119.927019 115 548ft 0kts
28-Aug-20 12:56 46.688952 -119.927019 115 548ft 0kts
28-Aug-20 12:57 46.688952 -119.927019 115 548ft 0kts
28-Aug-20 12:58 46.688952 -119.927019 115 548ft 0kts
28-Aug-20 12:59 46.688952 -119.927019 115 548ft 0kts
28-Aug-20 13:00 46.688952 -119.927019 115 548ft 0kts
28-Aug-20 13:01 46.688952 -119.927019 115 548ft 0kts
28-Aug-20 13:02 46.688952 -119.927019 115 548ft 0kts
28-Aug-20 13:03 46.688952 -119.927019 115 548ft 0kts
28-Aug-20 13:04 46.688952 -119.927019 115 548ft 0kts
28-Aug-20 13:05 46.688952 -119.927019 115 548ft 0kts
28-Aug-20 13:06 46.688952 -119.927019 115 548ft 0kts
28-Aug-20 13:07 46.688952 -119.927019 115 548ft 0kts
28-Aug-20 13:08 46.688952 -119.927019 115 548ft 0kts
28-Aug-20 13:09 46.688952 -119.927019 115 548ft 0kts
28-Aug-20 13:10 46.688952 -119.927019 115 548ft 0kts
28-Aug-20 13:11 46.688952 -119.927019 115 548ft 0kts
28-Aug-20 13:12 46.688952 -119.927019 115 548ft 0kts
28-Aug-20 13:13 46.688952 -119.927019 115 548ft 0kts
28-Aug-20 13:14 46.688952 -119.927019 115 548ft 0kts
28-Aug-20 13:15 46.688952 -119.927019 115 548ft 0kts
28-Aug-20 13:16 46.688952 -119.927019 115 548ft 0kts
28-Aug-20 13:17 46.688952 -119.927019 115 548ft 0kts
28-Aug-20 13:18 46.688952 -119.927019 115 548ft 0kts
28-Aug-20 13:19 46.688952 -119.927019 115 548ft 0kts
28-Aug-20 13:20 46.688952 -119.927019 115 548ft 0kts
28-Aug-20 13:21 46.688952 -119.927019 115 548ft 0kts
28-Aug-20 13:22 46.688952 -119.927019 115 548ft 0kts
28-Aug-20 13:23 46.688952 -119.927019 115 548ft 0kts
28-Aug-20 13:24 46.688952 -119.927019 115 548ft 0kts
28-Aug-20 13:25 46.688952 -119.927019 115 548ft 0kts
28-Aug-20 13:26 46.688952 -119.927019 115 548ft 0kts
28-Aug-20 13:27 46.688952 -119.927019 115 548ft 0kts
28-Aug-20 13:28 46.688952 -119.926849 81 548ft 0kts
28-Aug-20 13:29 46.689024 -119.926560 45 549ft 2kts
28-Aug-20 13:30 46.688650 -119.924042 113 556ft 54kts
28-Aug-20 13:31 46.676236 -119.889094 115 1347ft 117kts
28-Aug-20 13:32 46.651934 -119.850931 129 1723ft 149kts
28-Aug-20 13:33 46.632478 -119.795476 114 1981ft 138kts
28-Aug-20 13:34 46.603595 -119.766583 207 2366ft 150kts
28-Aug-20 13:35 46.565864 -119.795085 217 2675ft 154kts
28-Aug-20 13:36 46.534926 -119.840585 223 2730ft 164kts
28-Aug-20 13:37 46.502236 -119.888088 221 2804ft 161kts
28-Aug-20 13:38 46.469506 -119.935133 223 2876ft 166kts
28-Aug-20 13:39 46.427101 -119.954151 177 2908ft 167kts
28-Aug-20 13:40 46.380134 -119.959479 188 2830ft 169kts
28-Aug-20 13:41 46.344697 -119.992638 220 1730ft 143kts
28-Aug-20 13:42 46.327070 -119.987903 87 1083ft 83kts
28-Aug-20 13:43 46.326824 -119.968759 158 770ft 3kts
28-Aug-20 13:44 46.326443 -119.970213 165 770ft 5kts
28-Aug-20 13:45 46.326340 -119.970193 175 770ft 0kts
28-Aug-20 13:46 46.326340 -119.970193 175 770ft 0kts
28-Aug-20 13:47 46.326340 -119.970193 175 770ft 0kts
28-Aug-20 13:48 46.326340 -119.970193 175 770ft 0kts
28-Aug-20 13:49 46.326340 -119.970193 175 770ft 0kts
28-Aug-20 13:50 46.326340 -119.970193 175 770ft 0kts
28-Aug-20 13:51 46.326340 -119.970193 175 770ft 0kts
28-Aug-20 13:52 46.326236 -119.970368 257 770ft 2kts
28-Aug-20 13:53 46.326502 -119.973692 268 770ft 12kts
28-Aug-20 13:54 46.326573 -119.977013 330 770ft 0kts
28-Aug-20 13:55 46.326573 -119.977013 330 770ft 0kts
28-Aug-20 13:56 46.326313 -119.958254 93 1130ft 101kts
28-Aug-20 13:57 46.340215 -119.937941 309 2236ft 107kts
28-Aug-20 13:58 46.346096 -119.992661 282 2468ft 148kts
28-Aug-20 13:59 46.338877 -120.051178 245 2803ft 157kts
28-Aug-20 14:00 46.331094 -120.114379 274 2904ft 166kts
28-Aug-20 14:01 46.354926 -120.170257 320 2980ft 167kts
28-Aug-20 14:03 46.389880 -120.215038 324 3052ft 169kts
28-Aug-20 14:04 46.428027 -120.251923 295 3108ft 169kts
28-Aug-20 14:05 46.449101 -120.312274 295 3241ft 170kts
28-Aug-20 14:06 46.431902 -120.334247 133 3332ft 167kts
28-Aug-20 14:07 46.413809 -120.273278 124 3358ft 166kts
28-Aug-20 14:08 46.384883 -120.221137 108 3359ft 167kts
28-Aug-20 14:09 46.408740 -120.235320 272 2357ft 172kts
28-Aug-20 14:10 46.399902 -120.266344 123 1870ft 99kts
28-Aug-20 14:11 46.393665 -120.228624 88 907ft 86kts
28-Aug-20 14:12 46.396093 -120.190115 65 1664ft 105kts
28-Aug-20 14:13 46.408393 -120.207994 260 1863ft 115kts
28-Aug-20 14:14 46.415707 -120.257367 299 2377ft 147kts
28-Aug-20 14:15 46.439876 -120.309215 303 1990ft 155kts
28-Aug-20 14:16 46.460094 -120.347361 286 1637ft 96kts
28-Aug-20 14:17 46.441388 -120.337062 124 922ft 103kts
28-Aug-20 14:18 46.451414 -120.340341 284 1790ft 137kts
28-Aug-20 14:18 46.454003 -120.390791 268 2063ft 163kts
28-Aug-20 14:20 46.450862 -120.457284 227 2836ft 160kts
28-Aug-20 14:21 46.419111 -120.508221 226 2781ft 173kts
28-Aug-20 14:21 46.403971 -120.532379 226 2779ft 173kts
28-Aug-20 14:22 46.404972 -120.598173 287 2780ft 177kts
28-Aug-20 14:24 46.398674 -120.642528 83 2871ft 161kts
28-Aug-20 14:24 46.419984 -120.601915 334 3193ft 147kts
28-Aug-20 14:25 46.418318 -120.664315 257 2904ft 161kts
28-Aug-20 14:26 46.397426 -120.720057 212 2822ft 167kts
28-Aug-20 14:27 46.368395 -120.754544 121 3248ft 151kts
28-Aug-20 14:28 46.387550 -120.720050 303 3150ft 174kts
28-Aug-20 14:29 46.393326 -120.779405 348 3045ft 168kts
28-Aug-20 14:30 46.435952 -120.757715 24 3280ft 165kts
28-Aug-20 14:31 46.477949 -120.733295 18 3530ft 164kts
28-Aug-20 14:32 46.521680 -120.719478 347 3480ft 175kts
28-Aug-20 14:33 46.535418 -120.772742 216 3528ft 164kts
28-Aug-20 14:34 46.536175 -120.746173 287 3554ft 164kts
28-Aug-20 14:35 46.536638 -120.736558 336 3858ft 160kts
28-Aug-20 14:36 46.546530 -120.794882 330 4108ft 152kts
28-Aug-20 14:37 46.568778 -120.753964 59 4010ft 153kts
28-Aug-20 14:38 46.574309 -120.784804 261 3185ft 126kts
28-Aug-20 14:39 46.562458 -120.779871 86 2162ft 86kts
28-Aug-20 14:40 46.584138 -120.760375 4 2709ft 127kts
28-Aug-20 14:41 46.606015 -120.722705 59 3698ft 126kts
28-Aug-20 14:42 46.621322 -120.671578 73 4177ft 152kts
28-Aug-20 14:43 46.639554 -120.610707 55 4165ft 172kts
28-Aug-20 14:44 46.671070 -120.556520 43 4076ft 181kts
28-Aug-20 14:45 46.696673 -120.499959 42 3873ft 164kts
28-Aug-20 14:46 46.735318 -120.464281 16 3739ft 159kts
28-Aug-20 14:47 46.777449 -120.444431 330 3566ft 147kts
28-Aug-20 14:48 46.769065 -120.432869 63 3524ft 156kts
28-Aug-20 14:49 46.780104 -120.397243 60 4213ft 120kts
28-Aug-20 14:50 46.782725 -120.436537 255 2409ft 175kts
28-Aug-20 14:51 46.779293 -120.487936 242 3006ft 124kts
28-Aug-20 14:52 46.757061 -120.537654 242 3089ft 171kts
28-Aug-20 14:53 46.754505 -120.604793 289 2267ft 167kts
28-Aug-20 14:54 46.756553 -120.630864 130 2929ft 127kts
28-Aug-20 14:55 46.756007 -120.594446 305 3208ft 155kts
28-Aug-20 14:56 46.791894 -120.627715 312 3829ft 157kts
28-Aug-20 14:57 46.789491 -120.627071 320 3974ft 176kts
28-Aug-20 14:58 46.822373 -120.675824 258 4535ft 145kts
28-Aug-20 14:59 46.832365 -120.682487 323 4341ft 179kts
28-Aug-20 15:00 46.868330 -120.734122 302 4143ft 181kts
28-Aug-20 15:01 46.864844 -120.773441 136 4405ft 171kts
28-Aug-20 15:02 46.870508 -120.762798 215 4572ft 173kts
28-Aug-20 15:03 46.838096 -120.718814 113 4469ft 177kts
28-Aug-20 15:04 46.813667 -120.655700 130 4023ft 176kts
28-Aug-20 15:05 46.768101 -120.636870 173 3308ft 167kts
28-Aug-20 15:06 46.783441 -120.634451 309 3705ft 158kts
28-Aug-20 15:07 46.814441 -120.682952 322 3709ft 167kts
28-Aug-20 15:08 46.850533 -120.724581 311 3852ft 163kts
28-Aug-20 15:09 46.860784 -120.764537 156 4252ft 147kts
28-Aug-20 15:10 46.860214 -120.763645 262 4010ft 174kts
28-Aug-20 15:11 46.860894 -120.752533 314 3655ft 89kts
28-Aug-20 15:12 46.856920 -120.789769 272 3337ft 109kts
28-Aug-20 15:13 46.863673 -120.836672 270 4370ft 126kts
28-Aug-20 15:14 46.864626 -120.890949 284 5265ft 141kts
28-Aug-20 15:15 46.874041 -120.951003 288 5378ft 166kts
28-Aug-20 15:16 46.899378 -121.003613 314 4980ft 158kts
28-Aug-20 15:17 46.932200 -121.046096 319 4354ft 153kts
28-Aug-20 15:18 46.963103 -121.076911 321 4162ft 125kts
28-Aug-20 15:19 46.983276 -121.113641 257 4382ft 131kts
28-Aug-20 15:20 46.976402 -121.167385 263 4790ft 140kts
28-Aug-20 15:21 46.973638 -121.224599 262 5296ft 141kts
28-Aug-20 15:22 46.959886 -121.279980 243 5679ft 146kts
28-Aug-20 15:23 46.939960 -121.332297 239 6052ft 148kts
28-Aug-20 15:24 46.919157 -121.388108 241 5889ft 168kts
28-Aug-20 15:25 46.904476 -121.446510 257 6307ft 142kts
28-Aug-20 15:26 46.884282 -121.498647 233 6467ft 161kts
28-Aug-20 15:27 46.876554 -121.542201 340 6356ft 181kts
28-Aug-20 15:28 46.922340 -121.538791 17 4660ft 135kts
28-Aug-20 15:29 46.955785 -121.532475 355 4345ft 142kts
28-Aug-20 15:30 46.992376 -121.531950 9 3624ft 104kts
28-Aug-20 15:31 47.018323 -121.535778 347 2705ft 102kts
28-Aug-20 15:32 47.044178 -121.567172 335 3525ft 150kts
28-Aug-20 15:33 47.084025 -121.592347 336 3851ft 160kts
28-Aug-20 15:34 47.124934 -121.618523 336 3859ft 165kts
28-Aug-20 15:35 47.152436 -121.669993 293 3846ft 166kts
28-Aug-20 15:36 47.168046 -121.733421 276 3850ft 167kts
28-Aug-20 15:37 47.172811 -121.800842 275 3844ft 167kts
28-Aug-20 15:38 47.177518 -121.867744 275 3845ft 166kts
28-Aug-20 15:39 47.188278 -121.931604 290 2653ft 160kts
28-Aug-20 15:40 47.195959 -121.985091 271 1490ft 92kts
28-Aug-20 15:41 47.195999 -122.017639 271 742ft 77kts
28-Aug-20 15:42 47.196304 -122.025685 111 727ft 9kts
28-Aug-20 15:43 47.196202 -122.021660 92 734ft 11kts
28-Aug-20 15:44 47.196200 -122.020295 82 736ft 6kts
28-Aug-20 15:45 47.196010 -122.018535 89 739ft 6kts
28-Aug-20 15:46 47.196003 -122.016907 253 742ft 4kts
28-Aug-20 15:47 47.196041 -122.029287 274 882ft 92kts
28-Aug-20 15:48 47.191833 -122.018135 65 1390ft 129kts
28-Aug-20 15:49 47.204180 -122.049469 327 1490ft 122kts
28-Aug-20 15:50 47.235785 -122.065433 351 1646ft 142kts
28-Aug-20 15:51 47.269787 -122.067818 359 593ft 88kts
28-Aug-20 15:52 47.258315 -122.078860 145 1153ft 107kts
28-Aug-20 15:53 47.276526 -122.067848 358 867ft 101kts
28-Aug-20 15:54 47.301464 -122.081419 301 1353ft 103kts
28-Aug-20 15:55 47.318704 -122.099601 354 875ft 84kts
28-Aug-20 15:56 47.338385 -122.103866 347 475ft 31kts
28-Aug-20 15:57 47.340212 -122.103760 264 475ft 0kts
28-Aug-20 15:58 47.340212 -122.103760 264 475ft 0kts
28-Aug-20 16:00 47.340212 -122.103760 264 475ft 0kts
28-Aug-20 16:01 47.340212 -122.103760 264 475ft 0kts
28-Aug-20 16:02 47.340212 -122.103760 264 475ft 0kts
28-Aug-20 16:03 47.340212 -122.103760 264 475ft 0kts
28-Aug-20 16:04 47.340212 -122.103760 264 475ft 0kts
28-Aug-20 16:05 47.340212 -122.103760 264 475ft 0kts
28-Aug-20 16:06 47.340212 -122.103760 264 475ft 0kts
28-Aug-20 16:07 47.340212 -122.103760 264 475ft 0kts
28-Aug-20 16:08 47.340212 -122.103760 264 475ft 0kts
28-Aug-20 16:09 47.340212 -122.103760 264 475ft 0kts
28-Aug-20 16:10 47.340212 -122.103760 264 475ft 0kts
28-Aug-20 16:11 47.340212 -122.103760 264 475ft 0kts

Navigation Log

Ident Type
Flight plan parsing failed, navigation log unavailable